Time;durP1;ratioP1;P1;durP2;ratioP2;P2;SDS_P1;SDS_P2;PMS_P1;PMS_P2;Temp;Humidity;BMP_temperature;BMP_pressure;BME280_temperature;BME280_humidity;BME280_pressure;Samples;Min_cycle;Max_cycle;Signal;HPM_P1;HPM_P2
2023/10/11 00:01:22;;;;;;;6.67;4.87;;;15.40;99.90;;;;;;5047622;28;20192;-53
2023/10/11 00:03:53;;;;;;;7.50;4.90;;;15.40;99.90;;;;;;5054168;28;20213;-54
2023/10/11 00:06:24;;;;;;;12.30;5.40;;;15.30;99.90;;;;;;5053050;28;20565;-52
2023/10/11 00:08:53;;;;;;;8.80;5.60;;;15.30;99.90;;;;;;5053398;28;20228;-51
2023/10/11 00:11:27;;;;;;;12.33;5.30;;;15.30;99.90;;;;;;5057497;28;20719;-49
2023/10/11 00:13:56;;;;;;;9.67;5.47;;;15.30;99.90;;;;;;5052749;28;20567;-54
2023/10/11 00:16:24;;;;;;;8.73;5.40;;;15.40;99.90;;;;;;5058748;28;20417;-55
2023/10/11 00:18:55;;;;;;;9.77;5.60;;;15.30;99.90;;;;;;5055040;28;20521;-55
2023/10/11 00:21:40;;;;;;;9.87;5.43;;;15.30;99.90;;;;;;5053831;28;20229;-52
2023/10/11 00:24:09;;;;;;;7.90;5.63;;;15.30;99.90;;;;;;5054422;28;20600;-53
2023/10/11 00:26:40;;;;;;;11.53;5.43;;;15.20;99.90;;;;;;5057452;28;20263;-53
2023/10/11 00:29:09;;;;;;;11.37;6.07;;;15.30;99.90;;;;;;5047732;28;20745;-52
2023/10/11 00:31:38;;;;;;;8.53;5.80;;;15.20;99.90;;;;;;5054694;28;20227;-53
2023/10/11 00:34:10;;;;;;;9.70;5.97;;;15.20;99.90;;;;;;5055135;28;20207;-50
2023/10/11 00:36:42;;;;;;;10.57;5.93;;;15.20;99.90;;;;;;5056856;28;20263;-51
2023/10/11 00:39:16;;;;;;;10.17;6.50;;;15.20;99.90;;;;;;5061236;28;20307;-53
2023/10/11 00:41:48;;;;;;;9.60;5.97;;;15.10;99.90;;;;;;5063413;28;20680;-53
2023/10/11 00:44:20;;;;;;;9.60;6.57;;;15.00;99.90;;;;;;5061551;28;20936;-54
2023/10/11 00:46:59;;;;;;;12.37;6.27;;;15.00;99.90;;;;;;5058618;28;20237;-54
2023/10/11 00:49:36;;;;;;;14.00;6.23;;;15.00;99.90;;;;;;5060796;28;20292;-52
2023/10/11 00:52:07;;;;;;;8.93;6.17;;;15.00;99.90;;;;;;5064382;28;20197;-53
2023/10/11 00:54:37;;;;;;;8.97;6.60;;;15.00;99.90;;;;;;5065236;28;20225;-51
2023/10/11 00:57:06;;;;;;;12.83;6.60;;;15.00;99.90;;;;;;5064387;28;20719;-56
2023/10/11 00:59:36;;;;;;;11.87;6.97;;;15.00;99.90;;;;;;5058110;28;20575;-55
2023/10/11 01:02:06;;;;;;;11.70;7.00;;;15.00;99.90;;;;;;5050378;28;20222;-55
2023/10/11 01:04:38;;;;;;;7.97;6.23;;;15.00;99.90;;;;;;5057775;28;20223;-55
2023/10/11 01:07:09;;;;;;;12.23;6.80;;;15.00;99.90;;;;;;5059129;28;20298;-54
2023/10/11 01:09:40;;;;;;;10.43;6.90;;;15.00;99.90;;;;;;5059663;28;20232;-55
2023/10/11 01:12:09;;;;;;;13.53;6.80;;;14.90;99.90;;;;;;5061461;28;20228;-52
2023/10/11 01:14:56;;;;;;;13.77;7.07;;;14.90;99.90;;;;;;5057961;28;20217;-54
2023/10/11 01:17:27;;;;;;;14.37;6.50;;;14.90;99.90;;;;;;5057830;28;20569;-51
2023/10/11 01:19:55;;;;;;;9.20;6.93;;;14.90;99.90;;;;;;5059334;28;20235;-53
2023/10/11 01:22:26;;;;;;;13.80;7.27;;;14.90;99.90;;;;;;5057839;28;20202;-53
2023/10/11 01:24:58;;;;;;;13.23;7.50;;;14.90;99.90;;;;;;5057507;28;20203;-52
2023/10/11 01:27:30;;;;;;;13.27;7.47;;;14.90;99.90;;;;;;5062877;28;20721;-53
2023/10/11 01:29:59;;;;;;;10.23;7.23;;;14.90;99.90;;;;;;5062464;28;20254;-54
2023/10/11 01:32:29;;;;;;;13.67;7.53;;;14.90;99.90;;;;;;5060614;28;20220;-52
2023/10/11 01:34:57;;;;;;;13.23;7.87;;;14.90;99.90;;;;;;5059520;28;20218;-53
2023/10/11 01:37:28;;;;;;;13.13;7.30;;;14.90;99.90;;;;;;5053223;28;20203;-52
2023/10/11 01:39:56;;;;;;;13.67;7.53;;;14.80;99.90;;;;;;5061932;28;20604;-54
2023/10/11 01:42:24;;;;;;;14.67;7.63;;;14.80;99.90;;;;;;5056986;28;20221;-51
2023/10/11 01:44:53;;;;;;;12.73;7.60;;;14.90;99.90;;;;;;5062173;28;20224;-51
2023/10/11 01:47:21;;;;;;;12.03;7.87;;;14.90;99.90;;;;;;5055550;28;20226;-52
2023/10/11 01:49:52;;;;;;;16.37;8.27;;;14.90;99.90;;;;;;5058545;28;20217;-52
2023/10/11 01:52:21;;;;;;;17.30;8.17;;;14.90;99.90;;;;;;5058128;28;20202;-52
2023/10/11 01:54:51;;;;;;;13.43;7.50;;;14.80;99.90;;;;;;5060049;28;20212;-53
2023/10/11 01:57:20;;;;;;;9.97;7.00;;;14.90;99.90;;;;;;5062452;28;20216;-52
2023/10/11 01:59:48;;;;;;;12.60;7.43;;;14.80;99.90;;;;;;5054819;28;20221;-52
2023/10/11 02:02:17;;;;;;;11.93;7.77;;;14.80;99.90;;;;;;5056611;28;20242;-53
2023/10/11 02:04:45;;;;;;;14.73;7.70;;;14.80;99.90;;;;;;5062949;28;20232;-52
2023/10/11 02:07:14;;;;;;;16.33;8.60;;;14.80;99.90;;;;;;5055412;28;20190;-51
2023/10/11 02:09:43;;;;;;;15.37;7.97;;;14.80;99.90;;;;;;5058720;28;20224;-55
2023/10/11 02:12:17;;;;;;;11.83;7.93;;;14.80;99.90;;;;;;5058325;28;20225;-52
2023/10/11 02:14:46;;;;;;;19.63;8.07;;;14.80;99.90;;;;;;5062152;28;20218;-51
2023/10/11 02:17:18;;;;;;;12.90;7.97;;;14.80;99.90;;;;;;5060059;28;20221;-52
2023/10/11 02:19:47;;;;;;;12.80;7.43;;;14.80;99.90;;;;;;5056590;28;20221;-51
2023/10/11 02:22:18;;;;;;;15.30;7.50;;;14.80;99.90;;;;;;5060523;28;20208;-51
2023/10/11 02:24:47;;;;;;;11.47;8.07;;;14.80;99.90;;;;;;5054408;28;20224;-53
2023/10/11 02:27:17;;;;;;;13.37;7.83;;;14.70;99.90;;;;;;5057214;28;20305;-53
2023/10/11 02:29:47;;;;;;;14.93;7.87;;;14.80;99.90;;;;;;5060937;28;20315;-52
2023/10/11 02:32:18;;;;;;;15.37;8.07;;;14.70;99.90;;;;;;5065612;28;20268;-52
2023/10/11 02:34:49;;;;;;;15.77;8.23;;;14.70;99.90;;;;;;5061097;28;20687;-53
2023/10/11 02:37:21;;;;;;;12.40;8.40;;;14.60;99.90;;;;;;5058113;28;20195;-49
2023/10/11 02:39:51;;;;;;;12.60;8.53;;;14.60;99.90;;;;;;5056944;28;20684;-52
2023/10/11 02:42:21;;;;;;;14.93;7.90;;;14.60;99.90;;;;;;5057175;28;20224;-52
2023/10/11 02:44:50;;;;;;;12.23;7.97;;;14.70;99.90;;;;;;5054659;28;20237;-51
2023/10/11 02:47:22;;;;;;;16.33;8.30;;;14.60;99.90;;;;;;5055346;28;20219;-54
2023/10/11 02:49:54;;;;;;;14.60;8.47;;;14.60;99.90;;;;;;5058761;28;20544;-50
2023/10/11 02:52:29;;;;;;;17.63;8.63;;;14.60;99.90;;;;;;5062742;28;20212;-53
2023/10/11 02:55:00;;;;;;;14.60;8.97;;;14.50;99.90;;;;;;5055545;28;20583;-52
2023/10/11 02:57:30;;;;;;;12.67;8.07;;;14.50;99.90;;;;;;5055661;28;20247;-54
2023/10/11 02:59:58;;;;;;;14.47;8.73;;;14.50;99.90;;;;;;5056265;28;20225;-50
2023/10/11 03:02:29;;;;;;;12.33;8.27;;;14.50;99.90;;;;;;5054914;28;20311;-53
2023/10/11 03:05:01;;;;;;;13.33;8.93;;;14.50;99.90;;;;;;5053380;28;20237;-53
2023/10/11 03:07:33;;;;;;;15.97;8.80;;;14.50;99.90;;;;;;5057360;28;20287;-50
2023/10/11 03:10:02;;;;;;;18.47;9.10;;;14.60;99.90;;;;;;5057369;28;20266;-51
2023/10/11 03:12:38;;;;;;;14.67;8.97;;;14.50;99.90;;;;;;5058836;28;20336;-50
2023/10/11 03:15:11;;;;;;;13.30;8.63;;;14.50;99.90;;;;;;5059764;28;20626;-52
2023/10/11 03:17:43;;;;;;;13.40;8.17;;;14.50;99.90;;;;;;5056470;28;20221;-51
2023/10/11 03:20:27;;;;;;;11.47;8.83;;;14.40;99.90;;;;;;5060307;28;20309;-53
2023/10/11 03:22:59;;;;;;;16.30;9.53;;;14.40;99.90;;;;;;5057033;28;20675;-53
2023/10/11 03:25:32;;;;;;;12.53;8.77;;;14.40;99.90;;;;;;5055583;28;20520;-53
2023/10/11 03:28:02;;;;;;;16.37;8.90;;;14.50;99.90;;;;;;5052096;28;20275;-53
2023/10/11 03:30:35;;;;;;;15.70;9.00;;;14.40;99.90;;;;;;5055498;28;20226;-53
2023/10/11 03:33:06;;;;;;;14.10;9.10;;;14.40;99.90;;;;;;5062603;28;20222;-54
2023/10/11 03:35:38;;;;;;;17.33;9.20;;;14.40;99.90;;;;;;5059682;28;20600;-52
2023/10/11 03:38:17;;;;;;;15.60;9.37;;;14.40;99.90;;;;;;5056380;28;20239;-51
2023/10/11 03:41:14;;;;;;;14.97;9.00;;;14.40;99.90;;;;;;5055567;28;20232;-53
2023/10/11 03:43:45;;;;;;;14.63;8.73;;;14.50;99.90;;;;;;5053060;28;20224;-53
2023/10/11 03:46:15;;;;;;;16.23;9.50;;;14.50;99.90;;;;;;5052349;28;20248;-54
2023/10/11 03:48:51;;;;;;;14.10;8.33;;;14.50;99.90;;;;;;5057105;28;20584;-52
2023/10/11 03:51:20;;;;;;;12.47;8.50;;;14.50;99.90;;;;;;5086266;28;20269;-52
2023/10/11 03:53:49;;;;;;;13.53;8.17;;;14.60;99.90;;;;;;5052294;28;20217;-52
2023/10/11 03:56:17;;;;;;;14.17;8.27;;;14.60;99.90;;;;;;5057310;28;20229;-53
2023/10/11 03:58:50;;;;;;;11.57;8.00;;;14.60;99.90;;;;;;5057887;28;20622;-54
2023/10/11 04:01:24;;;;;;;12.57;8.13;;;14.60;99.90;;;;;;5046176;28;20284;-52
2023/10/11 04:03:53;;;;;;;14.20;7.87;;;14.50;99.90;;;;;;5054839;28;20246;-53
2023/10/11 04:06:22;;;;;;;13.83;8.70;;;14.50;99.90;;;;;;5060357;28;20225;-53
2023/10/11 04:08:55;;;;;;;15.87;8.10;;;14.50;99.90;;;;;;5059368;28;20219;-53
2023/10/11 04:11:37;;;;;;;15.10;8.63;;;14.40;99.90;;;;;;5054479;28;20240;-51
2023/10/11 04:14:17;;;;;;;13.67;7.67;;;14.40;99.90;;;;;;5058369;28;20223;-51
2023/10/11 04:16:46;;;;;;;18.07;8.23;;;14.40;99.90;;;;;;5055883;28;20231;-52
2023/10/11 04:19:21;;;;;;;14.37;8.57;;;14.50;99.90;;;;;;5058241;28;20189;-52
2023/10/11 04:21:56;;;;;;;10.80;7.30;;;14.50;99.90;;;;;;5057047;28;20589;-52
2023/10/11 04:24:24;;;;;;;16.73;7.87;;;14.50;99.90;;;;;;5053103;28;20229;-50
2023/10/11 04:26:58;;;;;;;14.77;8.57;;;14.50;99.90;;;;;;5057945;28;20757;-53
2023/10/11 04:29:31;;;;;;;11.90;8.20;;;14.50;99.90;;;;;;5066825;28;20254;-52
2023/10/11 04:32:14;;;;;;;14.23;8.40;;;14.50;99.90;;;;;;5055280;28;20633;-50
2023/10/11 04:34:55;;;;;;;12.67;7.77;;;14.50;99.90;;;;;;5052134;28;20248;-55
2023/10/11 04:37:29;;;;;;;14.93;8.27;;;14.50;99.90;;;;;;5054103;28;20227;-49
2023/10/11 04:40:15;;;;;;;13.10;7.73;;;14.50;99.90;;;;;;5088366;28;20190;-52
2023/10/11 04:42:45;;;;;;;12.17;8.00;;;14.40;99.90;;;;;;5054057;28;20695;-54
2023/10/11 04:45:28;;;;;;;17.13;9.20;;;14.40;99.90;;;;;;5055967;28;20237;-52
2023/10/11 04:48:18;;;;;;;14.87;8.27;;;14.30;99.90;;;;;;5048402;28;20659;-54
2023/10/11 04:50:49;;;;;;;12.77;8.03;;;14.30;99.90;;;;;;5054114;28;20268;-50
2023/10/11 04:53:18;;;;;;;17.10;8.77;;;14.30;99.90;;;;;;5055130;28;20258;-54
2023/10/11 04:55:58;;;;;;;19.07;8.83;;;14.30;99.90;;;;;;5054213;28;20220;-54
2023/10/11 04:58:42;;;;;;;13.87;8.83;;;14.20;99.90;;;;;;5047695;28;20758;-52
2023/10/11 05:01:12;;;;;;;15.07;8.37;;;14.30;99.90;;;;;;5054874;28;20278;-54
2023/10/11 05:03:42;;;;;;;18.90;9.07;;;14.30;99.90;;;;;;5051439;28;20714;-52
2023/10/11 05:06:16;;;;;;;19.03;8.63;;;14.30;99.90;;;;;;5057643;28;20233;-51
2023/10/11 05:08:54;;;;;;;20.50;9.07;;;14.30;99.90;;;;;;5054661;28;20231;-53
2023/10/11 05:11:36;;;;;;;16.73;8.53;;;14.30;99.90;;;;;;5049666;28;20220;-52
2023/10/11 05:14:28;;;;;;;15.63;7.83;;;14.30;99.90;;;;;;5051693;28;20237;-52
2023/10/11 05:17:16;;;;;;;17.43;8.70;;;14.30;99.90;;;;;;5054694;28;20220;-55
2023/10/11 05:19:55;;;;;;;22.50;9.00;;;14.40;99.90;;;;;;5056305;28;20221;-54
2023/10/11 05:22:29;;;;;;;15.37;8.93;;;14.40;99.90;;;;;;5049859;28;20196;-52
2023/10/11 05:25:37;;;;;;;14.57;8.50;;;14.40;99.90;;;;;;5057979;28;20564;-54
2023/10/11 05:28:07;;;;;;;12.87;8.10;;;14.30;99.90;;;;;;5055171;28;20274;-53
2023/10/11 05:30:37;;;;;;;14.00;9.17;;;14.40;99.90;;;;;;5057887;28;20255;-53
2023/10/11 05:33:41;;;;;;;15.70;8.40;;;14.40;99.90;;;;;;5061666;28;20220;-53
2023/10/11 05:36:17;;;;;;;14.03;8.23;;;14.40;99.90;;;;;;5063207;28;20235;-51
2023/10/11 05:52:52;;;;;;;11.77;8.00;;;14.40;99.90;;;;;;4983906;28;20230;-54
2023/10/11 05:55:21;;;;;;;12.33;8.33;;;14.40;99.90;;;;;;5011898;28;20193;-53
2023/10/11 05:57:50;;;;;;;14.03;8.03;;;14.40;99.90;;;;;;5056105;28;20216;-52
2023/10/11 06:00:25;;;;;;;13.83;8.17;;;14.40;99.90;;;;;;5053319;28;20224;-55
2023/10/11 06:02:54;;;;;;;15.80;8.47;;;14.40;99.90;;;;;;5047561;28;20225;-54
2023/10/11 06:05:24;;;;;;;10.50;7.47;;;14.40;99.90;;;;;;5059898;28;20232;-53
2023/10/11 06:08:03;;;;;;;10.97;8.00;;;14.40;99.90;;;;;;5055108;28;20220;-52
2023/10/11 06:10:41;;;;;;;16.00;8.40;;;14.40;99.90;;;;;;5065882;28;20216;-50
2023/10/11 06:13:13;;;;;;;17.57;9.07;;;14.50;99.90;;;;;;5054771;28;20224;-50
2023/10/11 06:15:58;;;;;;;14.57;8.00;;;14.40;99.90;;;;;;5032624;28;20214;-49
2023/10/11 06:18:39;;;;;;;21.93;8.13;;;14.50;99.90;;;;;;5048505;28;20235;-51
2023/10/11 06:21:24;;;;;;;16.30;8.10;;;14.50;99.90;;;;;;5053451;28;20219;-53
2023/10/11 06:23:53;;;;;;;13.27;7.60;;;14.50;99.90;;;;;;5052070;28;20271;-50
2023/10/11 06:29:16;;;;;;;22.80;8.20;;;14.60;99.90;;;;;;5052949;28;20229;-54
2023/10/11 06:31:45;;;;;;;17.60;8.60;;;14.60;99.90;;;;;;5052837;28;20227;-53
2023/10/11 06:34:22;;;;;;;14.47;7.90;;;14.60;99.90;;;;;;5055511;28;20198;-52
2023/10/11 06:36:55;;;;;;;15.77;7.90;;;14.70;99.90;;;;;;5059671;28;20299;-53
2023/10/11 06:40:07;;;;;;;15.30;7.80;;;14.70;99.90;;;;;;5059511;28;20719;-53
2023/10/11 06:42:23;;;;;;;24.43;8.03;;;14.70;99.90;;;;;;5048479;28;20278;-51
2023/10/11 06:44:57;;;;;;;15.63;8.00;;;14.80;99.90;;;;;;5051635;28;20272;-54
2023/10/11 06:47:33;;;;;;;16.77;8.53;;;14.90;99.90;;;;;;5060077;28;20217;-55
2023/10/11 06:50:10;;;;;;;17.63;8.97;;;14.90;99.90;;;;;;5057452;28;20215;-54
2023/10/11 06:52:43;;;;;;;19.43;8.30;;;14.90;99.90;;;;;;5054683;28;20226;-54
2023/10/11 06:55:18;;;;;;;15.23;8.43;;;15.00;99.90;;;;;;5052128;28;20190;-50
2023/10/11 06:57:50;;;;;;;17.33;8.30;;;15.10;99.90;;;;;;5058689;28;20210;-54
2023/10/11 07:00:25;;;;;;;15.23;8.50;;;15.20;99.90;;;;;;5050928;28;20226;-51
2023/10/11 07:03:06;;;;;;;13.47;8.67;;;15.40;99.90;;;;;;5049436;28;20220;-52
2023/10/11 07:05:41;;;;;;;21.50;8.27;;;15.50;99.90;;;;;;5049584;28;20716;-55
2023/10/11 07:08:17;;;;;;;14.57;8.40;;;15.60;99.90;;;;;;5089177;28;20221;-50
2023/10/11 07:11:10;;;;;;;17.07;8.33;;;15.70;99.90;;;;;;5089572;28;20325;-52
2023/10/11 07:13:54;;;;;;;15.27;8.30;;;15.80;99.90;;;;;;5057682;28;20230;-52
2023/10/11 07:16:27;;;;;;;15.07;8.50;;;15.90;99.90;;;;;;5051957;28;20901;-53
2023/10/11 07:18:58;;;;;;;16.77;9.07;;;15.90;99.90;;;;;;5048129;28;20205;-55
2023/10/11 07:21:41;;;;;;;12.83;7.57;;;15.90;99.90;;;;;;5047718;28;20228;-49
2023/10/11 07:24:31;;;;;;;15.87;8.30;;;16.00;99.90;;;;;;5057315;28;20229;-50
2023/10/11 07:27:08;;;;;;;15.43;7.97;;;16.10;99.90;;;;;;5060428;28;20223;-52
2023/10/11 07:29:37;;;;;;;13.27;7.40;;;16.10;99.90;;;;;;5052675;28;20253;-52
2023/10/11 07:32:09;;;;;;;16.00;8.73;;;16.10;99.90;;;;;;5046968;28;20315;-55
2023/10/11 07:34:39;;;;;;;18.00;8.07;;;16.10;99.90;;;;;;5051814;28;20773;-51
2023/10/11 07:37:11;;;;;;;14.63;8.87;;;16.20;99.90;;;;;;5054730;28;20189;-54
2023/10/11 07:39:46;;;;;;;12.97;8.57;;;16.30;99.90;;;;;;5051771;28;20220;-50
2023/10/11 07:42:19;;;;;;;18.87;8.77;;;16.50;99.90;;;;;;5052314;28;20220;-53
2023/10/11 07:44:50;;;;;;;17.53;9.50;;;16.60;99.90;;;;;;5051290;28;20223;-53
2023/10/11 07:47:25;;;;;;;12.77;8.13;;;16.60;99.90;;;;;;5054419;28;20709;-54
2023/10/11 07:49:54;;;;;;;14.00;8.63;;;16.60;99.90;;;;;;5058881;28;20228;-54
2023/10/11 07:52:23;;;;;;;17.17;9.50;;;16.60;99.90;;;;;;5050430;28;20288;-53
2023/10/11 07:54:53;;;;;;;14.97;9.00;;;16.60;99.90;;;;;;5058438;28;20609;-52
2023/10/11 07:57:22;;;;;;;14.40;9.07;;;16.60;99.90;;;;;;5050921;28;20221;-51
2023/10/11 07:59:51;;;;;;;16.80;8.60;;;16.70;99.90;;;;;;5048401;28;20220;-53
2023/10/11 08:02:31;;;;;;;23.10;10.40;;;16.80;99.90;;;;;;5052830;28;20708;-54
2023/10/11 08:05:01;;;;;;;14.83;9.50;;;16.80;99.90;;;;;;5044148;28;20302;-53
2023/10/11 08:07:29;;;;;;;16.10;9.83;;;16.70;99.90;;;;;;5050604;28;20243;-54
2023/10/11 08:10:20;;;;;;;22.97;10.63;;;16.70;99.90;;;;;;5055671;28;20683;-55
2023/10/11 08:12:54;;;;;;;16.80;10.63;;;16.60;99.90;;;;;;5048343;28;20216;-51
2023/10/11 08:15:25;;;;;;;16.47;10.53;;;16.60;99.90;;;;;;5057328;28;20219;-55
2023/10/11 08:17:54;;;;;;;17.47;10.43;;;16.60;99.90;;;;;;5053184;28;20227;-53
2023/10/11 08:20:28;;;;;;;24.90;10.67;;;16.80;99.90;;;;;;5056153;28;20379;-55
2023/10/11 08:22:57;;;;;;;20.07;10.27;;;16.70;99.90;;;;;;5050653;28;20228;-51
2023/10/11 08:25:30;;;;;;;20.73;10.93;;;16.80;99.90;;;;;;5049210;28;20239;-52
2023/10/11 08:28:19;;;;;;;19.63;11.83;;;16.80;99.90;;;;;;5052149;28;20212;-55
2023/10/11 08:30:47;;;;;;;17.57;11.20;;;16.90;99.90;;;;;;5047518;28;20220;-54
2023/10/11 08:33:17;;;;;;;22.67;11.57;;;17.00;99.90;;;;;;5047011;28;20223;-52
2023/10/11 08:35:49;;;;;;;26.30;12.97;;;17.10;99.90;;;;;;5056586;28;20222;-52
2023/10/11 08:38:19;;;;;;;24.77;13.83;;;17.10;99.90;;;;;;5057803;28;20227;-53
2023/10/11 08:40:50;;;;;;;23.50;11.93;;;17.10;99.90;;;;;;5050064;28;20289;-53
2023/10/11 08:43:19;;;;;;;20.53;11.77;;;17.20;99.90;;;;;;5051255;28;20198;-54
2023/10/11 08:45:49;;;;;;;23.53;11.90;;;17.20;99.90;;;;;;5060275;28;20277;-55
2023/10/11 08:48:18;;;;;;;21.57;12.43;;;17.30;99.90;;;;;;5057428;28;20224;-51
2023/10/11 08:50:53;;;;;;;25.70;13.13;;;17.40;99.90;;;;;;5055808;28;20454;-53
2023/10/11 08:53:24;;;;;;;24.00;12.37;;;17.50;99.90;;;;;;5053512;28;20221;-53
2023/10/11 08:55:58;;;;;;;25.97;13.53;;;17.70;99.90;;;;;;5049263;28;20231;-55
2023/10/11 08:58:28;;;;;;;25.23;13.67;;;17.70;99.90;;;;;;5056364;28;20192;-55
2023/10/11 09:00:59;;;;;;;28.60;14.97;;;17.60;99.90;;;;;;5053459;28;20637;-55
2023/10/11 09:03:31;;;;;;;27.50;14.53;;;17.60;99.90;;;;;;5059002;28;20231;-54
2023/10/11 09:06:01;;;;;;;32.97;15.47;;;17.70;99.90;;;;;;5058701;28;20217;-52
2023/10/11 09:08:32;;;;;;;27.67;14.83;;;17.80;99.90;;;;;;5060169;28;20224;-55
2023/10/11 09:11:28;;;;;;;35.03;15.80;;;17.90;99.90;;;;;;5054782;28;20224;-54
2023/10/11 09:14:13;;;;;;;27.63;14.80;;;17.90;99.90;;;;;;5058403;28;20240;-55
2023/10/11 09:16:41;;;;;;;28.53;15.63;;;17.90;99.90;;;;;;5066082;28;20220;-56
2023/10/11 09:19:19;;;;;;;27.60;16.23;;;18.00;99.90;;;;;;5059094;28;20184;-53
2023/10/11 09:22:03;;;;;;;39.03;16.57;;;18.00;99.90;;;;;;5055150;28;20579;-55
2023/10/11 09:24:41;;;;;;;26.93;15.47;;;18.00;99.90;;;;;;5057341;28;20232;-55
2023/10/11 09:27:19;;;;;;;29.33;15.17;;;17.90;99.90;;;;;;5052223;28;20745;-56
2023/10/11 09:29:49;;;;;;;30.73;15.43;;;18.00;99.90;;;;;;5053289;28;20719;-55
2023/10/11 09:32:19;;;;;;;36.00;16.17;;;17.90;99.90;;;;;;5056856;28;20349;-55
2023/10/11 09:34:51;;;;;;;27.90;15.43;;;17.90;99.90;;;;;;5056552;28;20267;-54
2023/10/11 09:37:20;;;;;;;29.57;15.70;;;18.00;99.90;;;;;;5051870;28;21135;-54
2023/10/11 09:39:51;;;;;;;39.97;16.60;;;18.00;99.90;;;;;;5086366;28;20204;-55
2023/10/11 09:42:25;;;;;;;33.37;15.50;;;18.10;99.90;;;;;;5055056;28;20220;-54
2023/10/11 09:44:57;;;;;;;35.97;16.00;;;18.10;99.90;;;;;;5054743;28;20266;-56
2023/10/11 09:47:31;;;;;;;30.30;16.03;;;18.10;99.90;;;;;;5044065;28;20570;-55
2023/10/11 09:50:02;;;;;;;32.77;15.23;;;18.10;99.90;;;;;;5060663;28;20220;-55
2023/10/11 09:52:30;;;;;;;28.83;16.37;;;18.10;99.90;;;;;;5061049;28;20207;-55
2023/10/11 09:55:02;;;;;;;32.80;16.27;;;18.20;99.90;;;;;;5054584;28;20213;-54
2023/10/11 09:57:41;;;;;;;30.13;17.13;;;18.30;99.90;;;;;;5073495;28;20217;-55
2023/10/11 10:00:19;;;;;;;34.43;16.63;;;18.40;99.90;;;;;;5054942;28;20293;-54
2023/10/11 10:02:52;;;;;;;30.03;15.10;;;18.50;99.90;;;;;;5054202;28;20742;-55
2023/10/11 10:05:22;;;;;;;29.73;16.00;;;18.60;99.90;;;;;;5055717;28;20307;-55
2023/10/11 10:07:52;;;;;;;34.30;15.53;;;18.80;99.90;;;;;;5049644;28;20282;-55
2023/10/11 10:10:25;;;;;;;33.40;16.47;;;18.90;99.90;;;;;;5051690;28;20311;-55
2023/10/11 10:13:06;;;;;;;29.20;16.00;;;19.10;99.90;;;;;;5057681;28;20184;-54
2023/10/11 10:15:49;;;;;;;29.17;14.90;;;19.20;99.90;;;;;;5058229;28;20224;-55
2023/10/11 10:18:20;;;;;;;30.33;15.03;;;19.20;99.90;;;;;;5065708;28;20209;-55
2023/10/11 10:21:01;;;;;;;26.60;15.07;;;19.40;99.90;;;;;;5054557;28;20216;-55
2023/10/11 10:23:37;;;;;;;31.90;15.47;;;19.40;99.90;;;;;;5051001;28;20224;-55
2023/10/11 10:26:30;;;;;;;30.33;16.63;;;19.50;99.90;;;;;;5052317;28;20231;-54
2023/10/11 10:29:01;;;;;;;37.37;15.90;;;19.60;99.90;;;;;;5051813;28;20254;-55
2023/10/11 10:31:33;;;;;;;28.60;15.13;;;19.70;99.90;;;;;;5052544;28;20207;-55
2023/10/11 10:34:29;;;;;;;27.40;15.07;;;19.70;99.90;;;;;;5055173;28;20546;-55
2023/10/11 10:37:05;;;;;;;33.10;14.60;;;19.60;99.90;;;;;;5048910;28;20221;-54
2023/10/11 10:39:46;;;;;;;26.57;14.83;;;19.70;99.90;;;;;;5054986;28;20298;-54
2023/10/11 10:42:17;;;;;;;28.47;14.73;;;20.00;99.90;;;;;;5054337;28;21459;-53
2023/10/11 10:44:54;;;;;;;29.57;15.37;;;20.20;99.90;;;;;;5053217;28;20218;-55
2023/10/11 10:47:28;;;;;;;26.77;14.67;;;20.20;99.90;;;;;;5050365;28;20213;-56
2023/10/11 10:49:57;;;;;;;27.20;15.47;;;20.00;99.90;;;;;;5055109;28;20866;-54
2023/10/11 10:52:29;;;;;;;35.27;15.17;;;19.80;99.90;;;;;;5054090;28;20641;-56
2023/10/11 10:55:01;;;;;;;28.33;14.60;;;19.70;99.90;;;;;;5051483;28;20648;-54
2023/10/11 10:57:32;;;;;;;30.83;13.83;;;19.80;99.90;;;;;;5056157;28;20235;-54
2023/10/11 11:00:05;;;;;;;31.13;15.07;;;19.90;99.90;;;;;;5053986;28;20225;-55
2023/10/11 11:02:35;;;;;;;30.57;14.90;;;20.20;99.90;;;;;;5057036;28;20225;-56
2023/10/11 11:05:13;;;;;;;30.53;14.90;;;20.40;99.90;;;;;;5052762;28;20958;-56
2023/10/11 11:07:47;;;;;;;31.37;14.43;;;20.40;99.90;;;;;;5052926;28;20633;-55
2023/10/11 11:10:20;;;;;;;29.20;13.83;;;20.60;99.90;;;;;;5055389;28;20243;-53
2023/10/11 11:12:49;;;;;;;35.40;13.90;;;20.80;99.90;;;;;;5047787;28;20243;-55
2023/10/11 11:15:20;;;;;;;28.57;15.23;;;21.00;99.90;;;;;;5052454;28;20324;-56
2023/10/11 11:17:51;;;;;;;28.77;14.57;;;21.20;99.90;;;;;;5051751;28;20214;-53
2023/10/11 11:20:29;;;;;;;26.93;15.13;;;21.30;99.90;;;;;;5052854;28;20727;-53
2023/10/11 11:22:57;;;;;;;27.87;15.23;;;21.40;99.90;;;;;;5056077;28;20251;-54
2023/10/11 11:25:28;;;;;;;31.93;16.33;;;21.40;99.90;;;;;;5052809;28;20194;-53
2023/10/11 11:28:17;;;;;;;32.13;16.47;;;21.30;99.90;;;;;;5060223;28;20204;-53
2023/10/11 11:31:09;;;;;;;28.30;16.43;;;21.10;99.90;;;;;;5044652;28;20229;-55
2023/10/11 11:33:47;;;;;;;34.93;17.40;;;21.00;99.90;;;;;;5037056;28;20416;-54
2023/10/11 11:36:30;;;;;;;34.03;18.97;;;20.90;99.90;;;;;;5027535;28;20567;-53
2023/10/11 11:39:17;;;;;;;35.13;17.37;;;20.70;99.90;;;;;;5048984;28;20223;-55
2023/10/11 11:41:47;;;;;;;31.30;16.83;;;20.50;99.90;;;;;;5048027;28;20216;-55
2023/10/11 11:44:21;;;;;;;34.87;17.23;;;20.50;99.90;;;;;;5047251;28;20209;-53
2023/10/11 11:46:50;;;;;;;32.97;17.03;;;20.50;99.90;;;;;;5053846;28;20228;-52
2023/10/11 11:49:21;;;;;;;32.43;17.27;;;20.60;99.90;;;;;;5051871;28;20304;-54
2023/10/11 11:51:51;;;;;;;38.87;16.47;;;20.70;99.90;;;;;;5045758;28;20212;-54
2023/10/11 11:54:21;;;;;;;34.40;15.40;;;20.80;99.90;;;;;;5047365;28;20274;-56
2023/10/11 11:56:54;;;;;;;34.00;15.93;;;21.00;99.90;;;;;;5049946;28;20221;-53
2023/10/11 11:59:23;;;;;;;35.30;15.30;;;21.10;99.90;;;;;;5048224;28;20278;-52
2023/10/11 12:01:54;;;;;;;34.50;15.23;;;21.30;99.90;;;;;;5048636;28;20220;-55
2023/10/11 12:04:28;;;;;;;27.63;14.87;;;21.40;99.90;;;;;;5053305;28;20275;-53
2023/10/11 12:06:58;;;;;;;24.37;14.43;;;21.30;99.90;;;;;;5048155;28;20212;-55
2023/10/11 12:09:31;;;;;;;29.33;15.30;;;21.30;99.90;;;;;;5044321;28;20254;-55
2023/10/11 12:12:19;;;;;;;31.97;14.57;;;21.30;99.90;;;;;;5050603;28;20221;-55
2023/10/11 12:14:49;;;;;;;25.63;13.57;;;21.50;99.90;;;;;;5049955;28;20228;-53
2023/10/11 12:17:19;;;;;;;22.60;12.97;;;21.50;99.90;;;;;;5057763;28;20781;-55
2023/10/11 12:19:53;;;;;;;30.07;12.73;;;21.60;99.90;;;;;;5048832;28;20217;-55
2023/10/11 12:22:23;;;;;;;25.50;12.17;;;21.60;99.90;;;;;;5052027;28;20536;-54
2023/10/11 12:24:52;;;;;;;22.23;11.10;;;21.60;99.90;;;;;;5045502;28;20714;-52
2023/10/11 12:27:22;;;;;;;20.57;12.00;;;21.60;99.90;;;;;;5052475;28;20220;-53
2023/10/11 12:29:53;;;;;;;24.30;12.20;;;21.60;99.90;;;;;;5048796;28;20224;-53
2023/10/11 12:32:37;;;;;;;19.03;11.43;;;21.60;99.90;;;;;;5056543;28;21457;-54
2023/10/11 12:35:08;;;;;;;19.67;10.87;;;21.40;99.90;;;;;;5060508;28;20290;-54
2023/10/11 12:37:36;;;;;;;21.73;11.20;;;21.50;99.90;;;;;;5054651;28;20231;-55
2023/10/11 12:40:11;;;;;;;22.53;10.77;;;21.70;99.90;;;;;;5055936;28;20190;-54
2023/10/11 12:42:42;;;;;;;19.03;10.13;;;22.00;99.90;;;;;;5066088;28;20671;-54
2023/10/11 12:45:16;;;;;;;17.70;9.23;;;22.10;99.90;;;;;;5051865;28;20224;-54
2023/10/11 12:47:47;;;;;;;18.93;9.43;;;22.10;99.90;;;;;;5052675;28;20623;-56
2023/10/11 12:50:17;;;;;;;17.77;9.17;;;22.20;99.90;;;;;;5050632;28;20237;-55
2023/10/11 12:52:46;;;;;;;18.63;9.07;;;22.40;99.90;;;;;;5047665;28;20324;-54
2023/10/11 12:55:14;;;;;;;20.63;9.33;;;22.40;99.90;;;;;;5053829;28;20195;-53
2023/10/11 12:57:42;;;;;;;17.87;8.73;;;22.40;99.90;;;;;;5057002;28;20235;-53
2023/10/11 13:00:28;;;;;;;20.13;9.17;;;22.40;99.90;;;;;;5051216;28;21534;-53
2023/10/11 13:03:15;;;;;;;21.60;8.53;;;22.30;99.90;;;;;;5079773;28;20218;-54
2023/10/11 13:05:46;;;;;;;15.83;8.20;;;22.30;99.90;;;;;;5055888;28;20271;-52
2023/10/11 13:08:16;;;;;;;16.67;7.93;;;22.30;99.90;;;;;;5055525;28;20220;-54
2023/10/11 13:10:46;;;;;;;17.77;7.30;;;22.20;99.90;;;;;;5044211;28;20225;-56
2023/10/11 13:13:15;;;;;;;15.23;7.80;;;22.20;99.90;;;;;;5050764;28;20205;-54
2023/10/11 13:15:55;;;;;;;18.40;7.30;;;22.30;99.90;;;;;;5046985;28;20222;-54
2023/10/11 13:18:28;;;;;;;17.37;6.67;;;22.30;99.90;;;;;;5047801;28;21505;-52
2023/10/11 13:20:57;;;;;;;15.73;6.87;;;22.40;99.90;;;;;;5048118;28;20233;-53
2023/10/11 13:23:30;;;;;;;22.73;7.23;;;22.40;99.90;;;;;;5056257;28;20596;-53